sensor_id;sensor_type;location;lat;lon;timestamp;temperature;humidity
46890;DHT22;32625;51.080;16.970;2022-09-28T00:02:03;8.70;99.90
46890;DHT22;32625;51.080;16.970;2022-09-28T00:04:31;8.60;99.90
46890;DHT22;32625;51.080;16.970;2022-09-28T00:07:00;8.60;99.90
46890;DHT22;32625;51.080;16.970;2022-09-28T00:09:30;8.70;99.90
46890;DHT22;32625;51.080;16.970;2022-09-28T00:11:57;8.70;99.90
46890;DHT22;32625;51.080;16.970;2022-09-28T00:14:24;8.80;99.90
46890;DHT22;32625;51.080;16.970;2022-09-28T00:16:54;8.80;99.90
46890;DHT22;32625;51.080;16.970;2022-09-28T00:19:21;8.80;99.90
46890;DHT22;32625;51.080;16.970;2022-09-28T00:21:48;8.80;99.90
46890;DHT22;32625;51.080;16.970;2022-09-28T00:24:29;8.70;99.90
46890;DHT22;32625;51.080;16.970;2022-09-28T00:26:57;8.70;99.90
46890;DHT22;32625;51.080;16.970;2022-09-28T00:29:28;8.60;99.90
46890;DHT22;32625;51.080;16.970;2022-09-28T00:32:45;8.50;99.90
46890;DHT22;32625;51.080;16.970;2022-09-28T00:35:12;8.50;99.90
46890;DHT22;32625;51.080;16.970;2022-09-28T00:37:39;8.40;99.90
46890;DHT22;32625;51.080;16.970;2022-09-28T00:40:06;8.50;99.90
46890;DHT22;32625;51.080;16.970;2022-09-28T00:45:41;8.30;99.90
46890;DHT22;32625;51.080;16.970;2022-09-28T00:48:09;8.20;99.90
46890;DHT22;32625;51.080;16.970;2022-09-28T00:50:38;8.20;99.90
46890;DHT22;32625;51.080;16.970;2022-09-28T00:57:28;8.20;99.90
46890;DHT22;32625;51.080;16.970;2022-09-28T00:59:58;8.00;99.90
46890;DHT22;32625;51.080;16.970;2022-09-28T01:02:25;8.00;99.90
46890;DHT22;32625;51.080;16.970;2022-09-28T01:05:14;8.00;99.90
46890;DHT22;32625;51.080;16.970;2022-09-28T01:07:45;7.90;99.90
46890;DHT22;32625;51.080;16.970;2022-09-28T01:10:13;7.90;99.90
46890;DHT22;32625;51.080;16.970;2022-09-28T01:12:41;7.90;99.90
46890;DHT22;32625;51.080;16.970;2022-09-28T01:15:23;7.80;99.90
46890;DHT22;32625;51.080;16.970;2022-09-28T01:35:20;7.60;99.90
46890;DHT22;32625;51.080;16.970;2022-09-28T01:40:40;7.70;99.90
46890;DHT22;32625;51.080;16.970;2022-09-28T01:46:53;7.70;99.90
46890;DHT22;32625;51.080;16.970;2022-09-28T01:49:24;7.60;99.90
46890;DHT22;32625;51.080;16.970;2022-09-28T02:00:15;7.50;99.90
46890;DHT22;32625;51.080;16.970;2022-09-28T02:09:21;7.40;99.90
46890;DHT22;32625;51.080;16.970;2022-09-28T02:12:23;7.40;99.90
46890;DHT22;32625;51.080;16.970;2022-09-28T02:14:54;7.40;99.90
46890;DHT22;32625;51.080;16.970;2022-09-28T02:17:29;7.30;99.90
46890;DHT22;32625;51.080;16.970;2022-09-28T02:19:57;7.30;99.90
46890;DHT22;32625;51.080;16.970;2022-09-28T02:30:52;7.20;99.90
46890;DHT22;32625;51.080;16.970;2022-09-28T02:33:26;7.20;99.90
46890;DHT22;32625;51.080;16.970;2022-09-28T02:36:18;7.20;99.90
46890;DHT22;32625;51.080;16.970;2022-09-28T02:38:45;7.20;99.90
46890;DHT22;32625;51.080;16.970;2022-09-28T02:59:53;7.30;99.90
46890;DHT22;32625;51.080;16.970;2022-09-28T03:02:51;7.30;99.90
46890;DHT22;32625;51.080;16.970;2022-09-28T03:05:45;7.40;99.90
46890;DHT22;32625;51.080;16.970;2022-09-28T03:12:17;7.30;99.90
46890;DHT22;32625;51.080;16.970;2022-09-28T03:15:07;7.30;99.90
46890;DHT22;32625;51.080;16.970;2022-09-28T03:17:36;7.30;99.90
46890;DHT22;32625;51.080;16.970;2022-09-28T03:37:11;7.60;99.90
46890;DHT22;32625;51.080;16.970;2022-09-28T03:39:38;7.70;99.90
46890;DHT22;32625;51.080;16.970;2022-09-28T03:42:05;7.60;99.90
46890;DHT22;32625;51.080;16.970;2022-09-28T03:44:36;7.60;99.90
46890;DHT22;32625;51.080;16.970;2022-09-28T03:47:06;7.70;99.90
46890;DHT22;32625;51.080;16.970;2022-09-28T03:49:35;7.70;99.90
46890;DHT22;32625;51.080;16.970;2022-09-28T03:52:15;7.80;99.90
46890;DHT22;32625;51.080;16.970;2022-09-28T03:54:42;7.80;99.90
46890;DHT22;32625;51.080;16.970;2022-09-28T03:57:15;7.80;99.90
46890;DHT22;32625;51.080;16.970;2022-09-28T04:00:21;7.80;99.90
46890;DHT22;32625;51.080;16.970;2022-09-28T04:02:49;7.80;99.90
46890;DHT22;32625;51.080;16.970;2022-09-28T04:08:58;7.90;99.90
46890;DHT22;32625;51.080;16.970;2022-09-28T04:20:45;7.80;99.90
46890;DHT22;32625;51.080;16.970;2022-09-28T04:23:14;7.80;99.90
46890;DHT22;32625;51.080;16.970;2022-09-28T04:25:42;7.70;99.90
46890;DHT22;32625;51.080;16.970;2022-09-28T04:29:25;7.80;99.90
46890;DHT22;32625;51.080;16.970;2022-09-28T04:31:58;7.80;99.90
46890;DHT22;32625;51.080;16.970;2022-09-28T04:38:05;7.80;99.90
46890;DHT22;32625;51.080;16.970;2022-09-28T04:40:32;7.80;99.90
46890;DHT22;32625;51.080;16.970;2022-09-28T04:47:31;7.80;99.90
46890;DHT22;32625;51.080;16.970;2022-09-28T04:50:19;7.80;99.90
46890;DHT22;32625;51.080;16.970;2022-09-28T04:56:18;7.80;99.90
46890;DHT22;32625;51.080;16.970;2022-09-28T04:58:45;7.90;99.90
46890;DHT22;32625;51.080;16.970;2022-09-28T05:06:06;8.00;99.90
46890;DHT22;32625;51.080;16.970;2022-09-28T05:18:10;8.00;99.90
46890;DHT22;32625;51.080;16.970;2022-09-28T05:20:46;8.00;99.90
46890;DHT22;32625;51.080;16.970;2022-09-28T05:23:39;8.10;99.90
46890;DHT22;32625;51.080;16.970;2022-09-28T05:26:07;8.10;99.90
46890;DHT22;32625;51.080;16.970;2022-09-28T05:28:35;8.10;99.90
46890;DHT22;32625;51.080;16.970;2022-09-28T05:31:22;8.20;99.90
46890;DHT22;32625;51.080;16.970;2022-09-28T05:38:42;8.30;99.90
46890;DHT22;32625;51.080;16.970;2022-09-28T05:41:09;8.30;99.90
46890;DHT22;32625;51.080;16.970;2022-09-28T05:43:37;8.40;99.90
46890;DHT22;32625;51.080;16.970;2022-09-28T05:46:33;8.40;99.90
46890;DHT22;32625;51.080;16.970;2022-09-28T05:49:01;8.40;99.90
46890;DHT22;32625;51.080;16.970;2022-09-28T05:51:28;8.50;99.90
46890;DHT22;32625;51.080;16.970;2022-09-28T05:53:55;8.60;99.90
46890;DHT22;32625;51.080;16.970;2022-09-28T05:56:29;8.60;99.90
46890;DHT22;32625;51.080;16.970;2022-09-28T05:58:57;8.70;99.90
46890;DHT22;32625;51.080;16.970;2022-09-28T06:01:27;8.70;99.90
46890;DHT22;32625;51.080;16.970;2022-09-28T06:03:56;8.70;99.90
46890;DHT22;32625;51.080;16.970;2022-09-28T06:06:25;8.70;99.90
46890;DHT22;32625;51.080;16.970;2022-09-28T06:08:52;8.70;99.90
46890;DHT22;32625;51.080;16.970;2022-09-28T06:11:37;8.80;99.90
46890;DHT22;32625;51.080;16.970;2022-09-28T06:14:17;8.90;99.90
46890;DHT22;32625;51.080;16.970;2022-09-28T06:16:44;8.90;99.90
46890;DHT22;32625;51.080;16.970;2022-09-28T06:19:12;8.90;99.90
46890;DHT22;32625;51.080;16.970;2022-09-28T06:21:57;9.00;99.90
46890;DHT22;32625;51.080;16.970;2022-09-28T06:24:25;9.10;99.90
46890;DHT22;32625;51.080;16.970;2022-09-28T06:26:52;9.10;99.90
46890;DHT22;32625;51.080;16.970;2022-09-28T06:29:20;9.20;99.90
46890;DHT22;32625;51.080;16.970;2022-09-28T06:31:48;9.20;99.90
46890;DHT22;32625;51.080;16.970;2022-09-28T06:34:16;9.30;99.90
46890;DHT22;32625;51.080;16.970;2022-09-28T06:36:45;9.30;99.90
46890;DHT22;32625;51.080;16.970;2022-09-28T06:39:12;9.40;99.90
46890;DHT22;32625;51.080;16.970;2022-09-28T06:41:40;9.50;99.90
46890;DHT22;32625;51.080;16.970;2022-09-28T06:44:13;9.60;99.90
46890;DHT22;32625;51.080;16.970;2022-09-28T06:47:00;9.60;99.90
46890;DHT22;32625;51.080;16.970;2022-09-28T06:49:45;9.70;99.90
46890;DHT22;32625;51.080;16.970;2022-09-28T06:52:51;9.70;99.90
46890;DHT22;32625;51.080;16.970;2022-09-28T06:55:51;9.60;99.90
46890;DHT22;32625;51.080;16.970;2022-09-28T06:58:20;9.70;99.90
46890;DHT22;32625;51.080;16.970;2022-09-28T07:00:50;9.70;99.90
46890;DHT22;32625;51.080;16.970;2022-09-28T07:03:20;9.70;99.90
46890;DHT22;32625;51.080;16.970;2022-09-28T07:05:59;9.60;99.90
46890;DHT22;32625;51.080;16.970;2022-09-28T07:09:01;9.60;99.90
46890;DHT22;32625;51.080;16.970;2022-09-28T07:12:18;9.60;99.90
46890;DHT22;32625;51.080;16.970;2022-09-28T07:14:54;9.70;99.90
46890;DHT22;32625;51.080;16.970;2022-09-28T07:17:25;9.70;99.90
46890;DHT22;32625;51.080;16.970;2022-09-28T07:19:54;9.70;99.90
46890;DHT22;32625;51.080;16.970;2022-09-28T07:22:30;9.70;99.90
46890;DHT22;32625;51.080;16.970;2022-09-28T07:25:11;9.70;99.90
46890;DHT22;32625;51.080;16.970;2022-09-28T07:27:41;9.80;99.90
46890;DHT22;32625;51.080;16.970;2022-09-28T07:30:35;9.80;99.90
46890;DHT22;32625;51.080;16.970;2022-09-28T07:33:08;9.80;99.90
46890;DHT22;32625;51.080;16.970;2022-09-28T07:35:50;9.90;99.90
46890;DHT22;32625;51.080;16.970;2022-09-28T07:38:19;9.90;99.90
46890;DHT22;32625;51.080;16.970;2022-09-28T07:40:47;10.00;99.90
46890;DHT22;32625;51.080;16.970;2022-09-28T07:43:34;10.10;99.90
46890;DHT22;32625;51.080;16.970;2022-09-28T07:46:02;10.00;99.90
46890;DHT22;32625;51.080;16.970;2022-09-28T07:48:30;10.00;99.90
46890;DHT22;32625;51.080;16.970;2022-09-28T07:51:26;10.10;99.90
46890;DHT22;32625;51.080;16.970;2022-09-28T07:54:14;10.10;99.90
46890;DHT22;32625;51.080;16.970;2022-09-28T07:57:07;10.20;99.90
46890;DHT22;32625;51.080;16.970;2022-09-28T07:59:55;10.20;99.90
46890;DHT22;32625;51.080;16.970;2022-09-28T08:02:42;10.20;99.90
46890;DHT22;32625;51.080;16.970;2022-09-28T08:05:11;10.30;99.90
46890;DHT22;32625;51.080;16.970;2022-09-28T08:07:39;10.40;99.90
46890;DHT22;32625;51.080;16.970;2022-09-28T08:10:08;10.40;99.90
46890;DHT22;32625;51.080;16.970;2022-09-28T08:12:58;10.50;99.90
46890;DHT22;32625;51.080;16.970;2022-09-28T08:15:40;10.40;99.90
46890;DHT22;32625;51.080;16.970;2022-09-28T08:18:19;10.50;99.90
46890;DHT22;32625;51.080;16.970;2022-09-28T08:20:50;10.50;99.90
46890;DHT22;32625;51.080;16.970;2022-09-28T08:23:37;10.50;99.90
46890;DHT22;32625;51.080;16.970;2022-09-28T08:26:05;10.50;99.90
46890;DHT22;32625;51.080;16.970;2022-09-28T08:28:32;10.60;99.90
46890;DHT22;32625;51.080;16.970;2022-09-28T08:31:10;10.70;99.90
46890;DHT22;32625;51.080;16.970;2022-09-28T08:34:03;10.80;99.90
46890;DHT22;32625;51.080;16.970;2022-09-28T08:36:49;10.80;99.90
46890;DHT22;32625;51.080;16.970;2022-09-28T08:39:45;10.80;99.90
46890;DHT22;32625;51.080;16.970;2022-09-28T08:42:34;10.80;99.90
46890;DHT22;32625;51.080;16.970;2022-09-28T08:45:40;10.90;99.90
46890;DHT22;32625;51.080;16.970;2022-09-28T08:48:32;11.00;99.90
46890;DHT22;32625;51.080;16.970;2022-09-28T08:54:45;11.10;99.90
46890;DHT22;32625;51.080;16.970;2022-09-28T08:57:32;11.10;99.90
46890;DHT22;32625;51.080;16.970;2022-09-28T09:00:04;11.10;99.90
46890;DHT22;32625;51.080;16.970;2022-09-28T09:02:38;11.20;99.90
46890;DHT22;32625;51.080;16.970;2022-09-28T09:05:20;11.30;99.90
46890;DHT22;32625;51.080;16.970;2022-09-28T09:10:51;11.50;99.90
46890;DHT22;32625;51.080;16.970;2022-09-28T09:19:33;11.70;99.90
46890;DHT22;32625;51.080;16.970;2022-09-28T09:22:38;11.60;99.90
46890;DHT22;32625;51.080;16.970;2022-09-28T09:39:17;12.00;99.90
46890;DHT22;32625;51.080;16.970;2022-09-28T09:50:51;11.90;99.90
46890;DHT22;32625;51.080;16.970;2022-09-28T09:53:48;12.00;99.90
46890;DHT22;32625;51.080;16.970;2022-09-28T09:56:18;12.10;99.90
46890;DHT22;32625;51.080;16.970;2022-09-28T09:59:21;12.20;99.90
46890;DHT22;32625;51.080;16.970;2022-09-28T10:02:25;12.30;99.90
46890;DHT22;32625;51.080;16.970;2022-09-28T10:10:44;12.40;99.90
46890;DHT22;32625;51.080;16.970;2022-09-28T10:13:17;12.40;99.90
46890;DHT22;32625;51.080;16.970;2022-09-28T10:15:44;12.40;99.90
46890;DHT22;32625;51.080;16.970;2022-09-28T10:18:31;12.30;99.90
46890;DHT22;32625;51.080;16.970;2022-09-28T10:21:20;12.30;99.90
46890;DHT22;32625;51.080;16.970;2022-09-28T10:24:16;12.30;99.90
46890;DHT22;32625;51.080;16.970;2022-09-28T10:26:47;12.30;99.90
46890;DHT22;32625;51.080;16.970;2022-09-28T10:29:21;12.30;99.90
46890;DHT22;32625;51.080;16.970;2022-09-28T10:31:50;12.30;99.90
46890;DHT22;32625;51.080;16.970;2022-09-28T10:34:31;12.30;99.90
46890;DHT22;32625;51.080;16.970;2022-09-28T10:37:09;12.20;99.90
46890;DHT22;32625;51.080;16.970;2022-09-28T10:39:57;12.20;99.90
46890;DHT22;32625;51.080;16.970;2022-09-28T10:42:30;12.20;99.90
46890;DHT22;32625;51.080;16.970;2022-09-28T10:47:42;11.90;99.90
46890;DHT22;32625;51.080;16.970;2022-09-28T10:50:21;11.80;99.90
46890;DHT22;32625;51.080;16.970;2022-09-28T10:53:16;11.70;99.90
46890;DHT22;32625;51.080;16.970;2022-09-28T10:56:05;11.30;99.90
46890;DHT22;32625;51.080;16.970;2022-09-28T10:58:38;11.10;99.90
46890;DHT22;32625;51.080;16.970;2022-09-28T11:01:10;10.90;99.90
46890;DHT22;32625;51.080;16.970;2022-09-28T11:06:29;10.60;99.90
46890;DHT22;32625;51.080;16.970;2022-09-28T11:08:59;10.50;99.90
46890;DHT22;32625;51.080;16.970;2022-09-28T11:11:28;10.40;99.90
46890;DHT22;32625;51.080;16.970;2022-09-28T11:14:03;10.30;99.90
46890;DHT22;32625;51.080;16.970;2022-09-28T11:16:34;10.20;99.90
46890;DHT22;32625;51.080;16.970;2022-09-28T11:19:27;10.20;99.90
46890;DHT22;32625;51.080;16.970;2022-09-28T11:21:55;10.20;99.90
46890;DHT22;32625;51.080;16.970;2022-09-28T11:24:31;10.30;99.90
46890;DHT22;32625;51.080;16.970;2022-09-28T11:27:01;10.30;99.90
46890;DHT22;32625;51.080;16.970;2022-09-28T11:29:55;10.30;99.90
46890;DHT22;32625;51.080;16.970;2022-09-28T11:32:40;10.30;99.90
46890;DHT22;32625;51.080;16.970;2022-09-28T11:35:55;10.40;99.90
46890;DHT22;32625;51.080;16.970;2022-09-28T11:38:41;10.30;99.90
46890;DHT22;32625;51.080;16.970;2022-09-28T11:41:50;10.30;99.90
46890;DHT22;32625;51.080;16.970;2022-09-28T11:44:24;10.30;99.90
46890;DHT22;32625;51.080;16.970;2022-09-28T11:52:56;10.20;99.90
46890;DHT22;32625;51.080;16.970;2022-09-28T11:58:29;10.20;99.90
46890;DHT22;32625;51.080;16.970;2022-09-28T12:01:11;10.20;99.90
46890;DHT22;32625;51.080;16.970;2022-09-28T12:04:15;10.20;99.90
46890;DHT22;32625;51.080;16.970;2022-09-28T12:06:55;10.30;99.90
46890;DHT22;32625;51.080;16.970;2022-09-28T12:09:35;10.30;99.90
46890;DHT22;32625;51.080;16.970;2022-09-28T12:12:20;10.40;99.90
46890;DHT22;32625;51.080;16.970;2022-09-28T12:14:58;10.40;99.90
46890;DHT22;32625;51.080;16.970;2022-09-28T12:17:35;10.40;99.90
46890;DHT22;32625;51.080;16.970;2022-09-28T12:20:25;10.40;99.90
46890;DHT22;32625;51.080;16.970;2022-09-28T12:25:28;10.40;99.90
46890;DHT22;32625;51.080;16.970;2022-09-28T12:28:02;10.40;99.90
46890;DHT22;32625;51.080;16.970;2022-09-28T12:30:34;10.40;99.90
46890;DHT22;32625;51.080;16.970;2022-09-28T12:33:04;10.30;99.90
46890;DHT22;32625;51.080;16.970;2022-09-28T12:49:05;10.30;99.90
46890;DHT22;32625;51.080;16.970;2022-09-28T12:51:56;10.30;99.90
46890;DHT22;32625;51.080;16.970;2022-09-28T12:57:39;10.30;99.90
46890;DHT22;32625;51.080;16.970;2022-09-28T13:00:18;10.30;99.90
46890;DHT22;32625;51.080;16.970;2022-09-28T13:11:46;10.60;99.90
46890;DHT22;32625;51.080;16.970;2022-09-28T13:17:54;10.40;99.90
46890;DHT22;32625;51.080;16.970;2022-09-28T13:23:16;10.40;99.90
46890;DHT22;32625;51.080;16.970;2022-09-28T13:26:00;10.40;99.90
46890;DHT22;32625;51.080;16.970;2022-09-28T13:28:30;10.40;99.90
46890;DHT22;32625;51.080;16.970;2022-09-28T13:30:59;10.50;99.90
46890;DHT22;32625;51.080;16.970;2022-09-28T13:33:31;10.40;99.90
46890;DHT22;32625;51.080;16.970;2022-09-28T13:36:02;10.50;99.90
46890;DHT22;32625;51.080;16.970;2022-09-28T13:38:44;10.40;99.90
46890;DHT22;32625;51.080;16.970;2022-09-28T13:41:21;10.40;99.90
46890;DHT22;32625;51.080;16.970;2022-09-28T13:47:16;10.50;99.90
46890;DHT22;32625;51.080;16.970;2022-09-28T13:52:39;10.50;99.90
46890;DHT22;32625;51.080;16.970;2022-09-28T13:58:35;10.50;99.90
46890;DHT22;32625;51.080;16.970;2022-09-28T14:04:11;10.50;99.90
46890;DHT22;32625;51.080;16.970;2022-09-28T14:06:49;10.40;99.90
46890;DHT22;32625;51.080;16.970;2022-09-28T14:09:43;10.40;99.90
46890;DHT22;32625;51.080;16.970;2022-09-28T14:12:50;10.30;99.90
46890;DHT22;32625;51.080;16.970;2022-09-28T14:18:03;10.30;99.90
46890;DHT22;32625;51.080;16.970;2022-09-28T14:20:34;10.40;99.90
46890;DHT22;32625;51.080;16.970;2022-09-28T14:23:22;10.40;99.90
46890;DHT22;32625;51.080;16.970;2022-09-28T14:26:24;10.40;99.90
46890;DHT22;32625;51.080;16.970;2022-09-28T14:31:39;10.50;99.90
46890;DHT22;32625;51.080;16.970;2022-09-28T14:34:25;10.50;99.90
46890;DHT22;32625;51.080;16.970;2022-09-28T14:36:56;10.50;99.90
46890;DHT22;32625;51.080;16.970;2022-09-28T14:39:44;10.60;99.90
46890;DHT22;32625;51.080;16.970;2022-09-28T14:42:30;10.60;99.90
46890;DHT22;32625;51.080;16.970;2022-09-28T14:48:03;10.60;99.90
46890;DHT22;32625;51.080;16.970;2022-09-28T14:50:30;10.60;99.90
46890;DHT22;32625;51.080;16.970;2022-09-28T14:53:11;10.60;99.90
46890;DHT22;32625;51.080;16.970;2022-09-28T14:55:48;10.60;99.90
46890;DHT22;32625;51.080;16.970;2022-09-28T14:58:24;10.70;99.90
46890;DHT22;32625;51.080;16.970;2022-09-28T15:01:04;10.70;99.90
46890;DHT22;32625;51.080;16.970;2022-09-28T15:03:33;10.80;99.90
46890;DHT22;32625;51.080;16.970;2022-09-28T15:06:01;10.80;99.90
46890;DHT22;32625;51.080;16.970;2022-09-28T15:08:38;10.90;99.90
46890;DHT22;32625;51.080;16.970;2022-09-28T15:11:13;10.90;99.90
46890;DHT22;32625;51.080;16.970;2022-09-28T15:13:41;10.90;99.90
46890;DHT22;32625;51.080;16.970;2022-09-28T15:16:12;11.00;99.90
46890;DHT22;32625;51.080;16.970;2022-09-28T15:21:17;11.00;99.90
46890;DHT22;32625;51.080;16.970;2022-09-28T15:23:45;11.00;99.90
46890;DHT22;32625;51.080;16.970;2022-09-28T15:26:22;11.10;99.90
46890;DHT22;32625;51.080;16.970;2022-09-28T15:28:50;11.10;99.90
46890;DHT22;32625;51.080;16.970;2022-09-28T15:31:20;11.20;99.90
46890;DHT22;32625;51.080;16.970;2022-09-28T15:33:47;11.20;99.90
46890;DHT22;32625;51.080;16.970;2022-09-28T15:36:37;11.20;99.90
46890;DHT22;32625;51.080;16.970;2022-09-28T15:39:14;11.10;99.90
46890;DHT22;32625;51.080;16.970;2022-09-28T15:41:45;11.10;99.90
46890;DHT22;32625;51.080;16.970;2022-09-28T15:44:30;11.00;99.90
46890;DHT22;32625;51.080;16.970;2022-09-28T15:47:09;11.00;99.90
46890;DHT22;32625;51.080;16.970;2022-09-28T15:49:43;10.90;99.90
46890;DHT22;32625;51.080;16.970;2022-09-28T15:54:54;10.90;99.90
46890;DHT22;32625;51.080;16.970;2022-09-28T15:57:32;10.80;99.90
46890;DHT22;32625;51.080;16.970;2022-09-28T16:00:02;10.80;99.90
46890;DHT22;32625;51.080;16.970;2022-09-28T16:02:37;10.80;99.90
46890;DHT22;32625;51.080;16.970;2022-09-28T16:05:32;10.80;99.90
46890;DHT22;32625;51.080;16.970;2022-09-28T16:08:03;10.70;99.90
46890;DHT22;32625;51.080;16.970;2022-09-28T16:10:32;10.70;99.90
46890;DHT22;32625;51.080;16.970;2022-09-28T16:13:17;10.60;99.90
46890;DHT22;32625;51.080;16.970;2022-09-28T16:15:53;10.70;99.90
46890;DHT22;32625;51.080;16.970;2022-09-28T16:18:25;10.60;99.90
46890;DHT22;32625;51.080;16.970;2022-09-28T16:20:55;10.60;99.90
46890;DHT22;32625;51.080;16.970;2022-09-28T16:23:29;10.60;99.90
46890;DHT22;32625;51.080;16.970;2022-09-28T16:26:04;10.60;99.90
46890;DHT22;32625;51.080;16.970;2022-09-28T16:36:15;10.50;99.90
46890;DHT22;32625;51.080;16.970;2022-09-28T16:38:46;10.50;99.90
46890;DHT22;32625;51.080;16.970;2022-09-28T16:41:20;10.40;99.90
46890;DHT22;32625;51.080;16.970;2022-09-28T16:43:54;10.30;99.90
46890;DHT22;32625;51.080;16.970;2022-09-28T16:46:26;10.30;99.90
46890;DHT22;32625;51.080;16.970;2022-09-28T16:48:56;10.30;99.90
46890;DHT22;32625;51.080;16.970;2022-09-28T16:51:27;10.20;99.90
46890;DHT22;32625;51.080;16.970;2022-09-28T16:54:09;10.20;99.90
46890;DHT22;32625;51.080;16.970;2022-09-28T16:56:55;10.10;99.90
46890;DHT22;32625;51.080;16.970;2022-09-28T16:59:23;10.00;99.90
46890;DHT22;32625;51.080;16.970;2022-09-28T17:01:50;9.90;99.90
46890;DHT22;32625;51.080;16.970;2022-09-28T17:04:17;9.90;99.90
46890;DHT22;32625;51.080;16.970;2022-09-28T17:06:44;9.90;99.90
46890;DHT22;32625;51.080;16.970;2022-09-28T17:09:11;9.80;99.90
46890;DHT22;32625;51.080;16.970;2022-09-28T17:11:38;9.70;99.90
46890;DHT22;32625;51.080;16.970;2022-09-28T17:14:06;9.60;99.90
46890;DHT22;32625;51.080;16.970;2022-09-28T17:16:34;9.60;99.90
46890;DHT22;32625;51.080;16.970;2022-09-28T17:19:23;9.60;99.90
46890;DHT22;32625;51.080;16.970;2022-09-28T17:21:51;9.50;99.90
46890;DHT22;32625;51.080;16.970;2022-09-28T17:24:19;9.60;99.90
46890;DHT22;32625;51.080;16.970;2022-09-28T17:26:48;9.60;99.90
46890;DHT22;32625;51.080;16.970;2022-09-28T17:29:17;9.70;99.90
46890;DHT22;32625;51.080;16.970;2022-09-28T17:31:45;9.70;99.90
46890;DHT22;32625;51.080;16.970;2022-09-28T17:34:14;9.80;99.90
46890;DHT22;32625;51.080;16.970;2022-09-28T17:36:42;9.70;99.90
46890;DHT22;32625;51.080;16.970;2022-09-28T17:39:15;9.70;99.90
46890;DHT22;32625;51.080;16.970;2022-09-28T17:41:43;9.70;99.90
46890;DHT22;32625;51.080;16.970;2022-09-28T17:44:11;9.70;99.90
46890;DHT22;32625;51.080;16.970;2022-09-28T17:46:44;9.70;99.90
46890;DHT22;32625;51.080;16.970;2022-09-28T17:49:13;9.70;99.90
46890;DHT22;32625;51.080;16.970;2022-09-28T17:51:41;9.70;99.90
46890;DHT22;32625;51.080;16.970;2022-09-28T17:54:08;9.70;99.90
46890;DHT22;32625;51.080;16.970;2022-09-28T17:56:36;9.70;99.90
46890;DHT22;32625;51.080;16.970;2022-09-28T17:59:05;9.70;99.90
46890;DHT22;32625;51.080;16.970;2022-09-28T18:01:33;9.70;99.90
46890;DHT22;32625;51.080;16.970;2022-09-28T18:04:05;9.70;99.90
46890;DHT22;32625;51.080;16.970;2022-09-28T18:06:34;9.60;99.90
46890;DHT22;32625;51.080;16.970;2022-09-28T18:09:04;9.70;99.90
46890;DHT22;32625;51.080;16.970;2022-09-28T18:11:32;9.70;99.90
46890;DHT22;32625;51.080;16.970;2022-09-28T18:13:59;9.60;99.90
46890;DHT22;32625;51.080;16.970;2022-09-28T18:16:27;9.60;99.90
46890;DHT22;32625;51.080;16.970;2022-09-28T18:18:55;9.50;99.90
46890;DHT22;32625;51.080;16.970;2022-09-28T18:21:22;9.50;99.90
46890;DHT22;32625;51.080;16.970;2022-09-28T18:23:49;9.50;99.90
46890;DHT22;32625;51.080;16.970;2022-09-28T18:26:16;9.50;99.90
46890;DHT22;32625;51.080;16.970;2022-09-28T18:28:45;9.50;99.90
46890;DHT22;32625;51.080;16.970;2022-09-28T18:31:14;9.50;99.90
46890;DHT22;32625;51.080;16.970;2022-09-28T18:33:41;9.60;99.90
46890;DHT22;32625;51.080;16.970;2022-09-28T18:36:09;9.50;99.90
46890;DHT22;32625;51.080;16.970;2022-09-28T18:38:37;9.50;99.90
46890;DHT22;32625;51.080;16.970;2022-09-28T18:41:10;9.50;99.90
46890;DHT22;32625;51.080;16.970;2022-09-28T18:43:41;9.40;99.90
46890;DHT22;32625;51.080;16.970;2022-09-28T18:46:09;9.40;99.90
46890;DHT22;32625;51.080;16.970;2022-09-28T18:48:37;9.40;99.90
46890;DHT22;32625;51.080;16.970;2022-09-28T18:51:12;9.40;99.90
46890;DHT22;32625;51.080;16.970;2022-09-28T18:53:40;9.30;99.90
46890;DHT22;32625;51.080;16.970;2022-09-28T18:56:10;9.30;99.90
46890;DHT22;32625;51.080;16.970;2022-09-28T18:58:41;9.30;99.90
46890;DHT22;32625;51.080;16.970;2022-09-28T19:01:13;9.30;99.90
46890;DHT22;32625;51.080;16.970;2022-09-28T19:04:03;9.20;99.90
46890;DHT22;32625;51.080;16.970;2022-09-28T19:06:31;9.20;99.90
46890;DHT22;32625;51.080;16.970;2022-09-28T19:09:00;9.10;99.90
46890;DHT22;32625;51.080;16.970;2022-09-28T19:11:27;9.10;99.90
46890;DHT22;32625;51.080;16.970;2022-09-28T19:13:55;9.00;99.90
46890;DHT22;32625;51.080;16.970;2022-09-28T19:16:27;9.00;99.90
46890;DHT22;32625;51.080;16.970;2022-09-28T19:18:56;9.00;99.90
46890;DHT22;32625;51.080;16.970;2022-09-28T19:21:24;9.00;99.90
46890;DHT22;32625;51.080;16.970;2022-09-28T19:23:51;9.00;99.90
46890;DHT22;32625;51.080;16.970;2022-09-28T19:26:25;9.10;99.90
46890;DHT22;32625;51.080;16.970;2022-09-28T19:28:54;9.00;99.90
46890;DHT22;32625;51.080;16.970;2022-09-28T19:31:23;9.00;99.90
46890;DHT22;32625;51.080;16.970;2022-09-28T19:33:50;9.00;99.90
46890;DHT22;32625;51.080;16.970;2022-09-28T19:36:23;9.00;99.90
46890;DHT22;32625;51.080;16.970;2022-09-28T19:38:51;9.00;99.90
46890;DHT22;32625;51.080;16.970;2022-09-28T19:41:23;9.00;99.90
46890;DHT22;32625;51.080;16.970;2022-09-28T19:44:21;8.90;99.90
46890;DHT22;32625;51.080;16.970;2022-09-28T19:47:01;8.90;99.90
46890;DHT22;32625;51.080;16.970;2022-09-28T19:49:35;8.90;99.90
46890;DHT22;32625;51.080;16.970;2022-09-28T19:52:09;8.90;99.90
46890;DHT22;32625;51.080;16.970;2022-09-28T19:54:51;8.90;99.90
46890;DHT22;32625;51.080;16.970;2022-09-28T19:57:25;8.90;99.90
46890;DHT22;32625;51.080;16.970;2022-09-28T19:59:53;8.90;99.90
46890;DHT22;32625;51.080;16.970;2022-09-28T20:02:32;8.80;99.90
46890;DHT22;32625;51.080;16.970;2022-09-28T20:05:00;8.70;99.90
46890;DHT22;32625;51.080;16.970;2022-09-28T20:07:27;8.70;99.90
46890;DHT22;32625;51.080;16.970;2022-09-28T20:09:58;8.70;99.90
46890;DHT22;32625;51.080;16.970;2022-09-28T20:12:27;8.60;99.90
46890;DHT22;32625;51.080;16.970;2022-09-28T20:14:54;8.50;99.90
46890;DHT22;32625;51.080;16.970;2022-09-28T20:17:21;8.40;99.90
46890;DHT22;32625;51.080;16.970;2022-09-28T20:19:48;8.40;99.90
46890;DHT22;32625;51.080;16.970;2022-09-28T20:22:17;8.40;99.90
46890;DHT22;32625;51.080;16.970;2022-09-28T20:24:45;8.40;99.90
46890;DHT22;32625;51.080;16.970;2022-09-28T20:27:12;8.30;99.90
46890;DHT22;32625;51.080;16.970;2022-09-28T20:29:39;8.30;99.90
46890;DHT22;32625;51.080;16.970;2022-09-28T20:32:08;8.20;99.90
46890;DHT22;32625;51.080;16.970;2022-09-28T20:34:37;8.00;99.90
46890;DHT22;32625;51.080;16.970;2022-09-28T20:37:04;8.00;99.90
46890;DHT22;32625;51.080;16.970;2022-09-28T20:39:31;8.00;99.90